• Join FlightAware (Why Join?)
  • Login
  • US Flag 
02:39AM EDT


 

Airport Tracker/Info


-or-


 

Live Flight TrackerFlight Track Log ✈ EJA955 ✈ 21-Aug-2013 ✈ MYNN / NAS - KMIA

Flight Track Log - Related Links

Times and Time Zones

All times are in EDT time to prevent confusion due to time zone crossing. See the EJA955 flight status page for this flight to view local times or setup timezone preferences in your user account.

Time Position Orientation Groundspeed Altitude Reporting Facility
EDT Latitude Longitude Course Direction KTS MPH feet Rate Location/Type
09:23AM 24.9797 -77.4708 270° West 339 390 7,100  Level Miami Center
09:24AM 24.9981 -77.5672 282° West 240 276 11,200 3,360 Climbing Miami Center
09:25AM 25.0164 -77.6797 280° West 291 335 13,900 2,340 Climbing Miami Center
09:26AM 25.0617 -77.7881 295° West 362 417 15,900 1,020 Climbing Miami Center
09:27AM 25.1089 -77.9053 294° West 382 440 16,000  Climbing Miami Center
09:28AM 24.9833 -78.1064 270° West  Level FlightAware Approximate
09:28AM 25.1603 -78.0319 294° West 426 490 16,000  Level Miami Center
09:29AM 25.1967 -78.1633 287° West 445 512 16,000  Level Miami Center
09:30AM 25.2272 -78.2761 287° West 458 527 16,000  Level Miami Center
09:31AM 25.2567 -78.4397 281° West 463 533 16,000  Level Miami Center
09:32AM 25.2553 -78.5797 269° West 463 533 16,100  Climbing Miami Center
09:33AM 25.2578 -78.7156 271° West 457 526 16,000 -60 Descending Miami Center
09:34AM 25.2581 -78.8556 270° West 457 526 16,000  Level Miami Center
09:35AM 25.2625 -78.9936 272° West 457 526 16,000 -60 Level Miami Center
09:36AM 25.2856 -79.1272 281° West 457 526 15,900 -120 Descending Miami Center
09:37AM 25.2461 -79.2458 250° West 416 479 15,800 -600 Descending Miami Center
09:38AM 25.2125 -79.3669 253° West 416 479 14,800 -1,020 Descending Miami Center
09:39AM 25.2522 -79.4894 290° West 398 458 13,800 -1,020 Descending Miami Center
09:40AM 25.2947 -79.5708 300° West 423 487 13,100 -1,020 Descending Miami Center
09:40AM 25.3453 -79.6594 302° West 422 486 12,300 -840 Descending Miami Center
09:41AM 25.4061 -79.7575 304° West 361 415 11,600 -900 Descending Miami Center
09:43AM 25.4731 -79.8556 307° West 363 418 10,500 -840 Descending Miami Center
09:43AM 25.5278 -79.9400 306° West 360 414 10,000 -300 Descending Miami Center
09:45AM 25.6011 -80.0269 313° West 361 415 10,000  Level Miami Center
09:46AM 25.6644 -80.0956 316° Northwest 352 405 10,000 -420 Level Miami Center
09:47AM 25.7336 -80.1736 315° West 314 361 9,300 -840 Descending Miami Center
09:47AM 25.7825 -80.2325 313° West 295 339 8,400 -1,020 Descending Miami Center
09:49AM 25.8497 -80.3036 316° Northwest 294 338 7,300 -1,200 Descending Miami Center
09:50AM 25.8833 -80.3808 296° West 257 296 5,900 -1,500 Descending Miami Center
09:51AM 25.8900 -80.4550 276° West 243 280 4,300 -1,200 Descending Miami Center
09:52AM 25.8489 -80.5089 230° Southwest 235 270 3,500 -660 Descending Miami Center
09:53AM 25.8056 -80.4869 155° Southeast 211 243 3,000 -600 Descending Miami Center
09:54AM 25.7967 -80.4244 99° East 194 223 2,400 -900 Descending Miami Center
09:55AM 25.7983 -80.3597 88° East 167 192 1,100 -960 Descending Miami Center
09:56AM 25.8014 -80.3161 86° East 120 138 300 -840 Descending Miami Center
09:58AM 25.7954 -80.2901 77° East  Level Estimated
10:05AM 25.7954 -80.2901 77° East  Level Estimated